Big Piney River (Missouri), Fort Leonard Wood (06930060)

StateMissouriLatestHigh (2540 cfs)
RiverBig Piney RiverRatingObservedEstimated
Updated2020-02-25 22:00 (55 minutes ago)Flood - The river is flooding. Obstacles can be treacherous or deadly. The river should be avoided at this stage for casual trips and definitely for the inexperienced. Trips should be attempted only with protective gear and equipment.Flood(none)3031
Discharge2540 cfs (median: 482 cfs)High - The river is high and potentially dangerous, especially for the young and / or inexperienced. Normal stream obstacles are sometimes difficult to navigate. Extended distances can be attempted, but canoe travel may not be advisable.High(none)1449
Height5.24 feetGood - Conditions are ideal for a canoe or kayak. Boats typically will drag on fewer than one-quarter of riffles, if at all, and portages are unnecessary or rare. Normal float lengths can be attempted without a problem.Good(none)638
TrendFalling (rising over 24 hours)Low - River is low but can still be floated. Some riffles are okay but most come with significant dragging and might need a portage. Float lengths should be reduced to accommodate low flow, dragging, and portages.Low(none)385
USGSExternal icon USGS Site (External icon Google Maps)Poor - River is too low to float comfortably. Most or all riffles will drag or must be portaged and some obstacles (such as slick shelf rock) cause undue problems. Avoid the river at this stage for casual paddling trips.Poor(none)204

Trending Data

Plot Image

Trips for Big Piney River (Missouri), Fort Leonard Wood (06930060)

DateStartEndDistanceConditionDischargeHeightFishingDetails

A total of 0 rows are displayed.

Condition Descriptions

Fishing Conditions

Fish Species

Notes

Classic Trip List

The classic River Trips application is still available for use. It is updated with the new system using a data retrofit. It is no longer maintained. The original River Trips application is no longer updated (as of 1 Dec 2016) but can be checked for errors or for the condition of the data before it was converted to the new system.

Gauge Data Table

ObservationHeightDischargeMaximum
Discharge
Minimum
Discharge
Mean
Discharge
P05P10P20P25P50
(Median)
P75P80P90P95
2020-02-25 22:00 5.24 2540 18600 (2001) 179 (2006) 2380 182 240 269 336 482 995 1080 16700 18600
2020-02-25 21:00 5.27 2560 18600 (2001) 179 (2006) 2380 182 240 269 336 482 995 1080 16700 18600
2020-02-25 20:00 5.26 2550 18600 (2001) 179 (2006) 2380 182 240 269 336 482 995 1080 16700 18600
2020-02-25 19:00 5.22 2520 18600 (2001) 179 (2006) 2380 182 240 269 336 482 995 1080 16700 18600
2020-02-25 18:00 5.17 2470 18600 (2001) 179 (2006) 2380 182 240 269 336 482 995 1080 16700 18600
2020-02-25 17:00 5.11 2420 18600 (2001) 179 (2006) 2380 182 240 269 336 482 995 1080 16700 18600
2020-02-25 16:00 5.00 2300 18600 (2001) 179 (2006) 2380 182 240 269 336 482 995 1080 16700 18600
2020-02-25 15:00 4.91 2200 18600 (2001) 179 (2006) 2380 182 240 269 336 482 995 1080 16700 18600
2020-02-25 14:00 4.83 2110 18600 (2001) 179 (2006) 2380 182 240 269 336 482 995 1080 16700 18600
2020-02-25 13:00 4.74 2020 18600 (2001) 179 (2006) 2380 182 240 269 336 482 995 1080 16700 18600
2020-02-25 12:00 4.70 1980 18600 (2001) 179 (2006) 2380 182 240 269 336 482 995 1080 16700 18600
2020-02-25 11:00 4.59 1860 18600 (2001) 179 (2006) 2380 182 240 269 336 482 995 1080 16700 18600
2020-02-25 10:00 4.49 1760 18600 (2001) 179 (2006) 2380 182 240 269 336 482 995 1080 16700 18600
2020-02-25 09:00 4.39 1660 18600 (2001) 179 (2006) 2380 182 240 269 336 482 995 1080 16700 18600
2020-02-25 08:00 4.31 1590 18600 (2001) 179 (2006) 2380 182 240 269 336 482 995 1080 16700 18600
2020-02-25 07:00 4.16 1450 18600 (2001) 179 (2006) 2380 182 240 269 336 482 995 1080 16700 18600
2020-02-25 06:00 4.05 1360 18600 (2001) 179 (2006) 2380 182 240 269 336 482 995 1080 16700 18600
2020-02-25 05:00 3.94 1270 18600 (2001) 179 (2006) 2380 182 240 269 336 482 995 1080 16700 18600
2020-02-25 04:00 3.83 1190 18600 (2001) 179 (2006) 2380 182 240 269 336 482 995 1080 16700 18600
2020-02-25 03:00 3.76 1140 18600 (2001) 179 (2006) 2380 182 240 269 336 482 995 1080 16700 18600
2020-02-25 02:00 3.68 1080 18600 (2001) 179 (2006) 2380 182 240 269 336 482 995 1080 16700 18600
2020-02-25 01:00 3.64 1050 18600 (2001) 179 (2006) 2380 182 240 269 336 482 995 1080 16700 18600
2020-02-25 00:00 3.60 1020 18600 (2001) 179 (2006) 2380 182 240 269 336 482 995 1080 16700 18600
2020-02-24 23:00 3.56 998 6440 (2018) 180 (2006) 929 182 229 274 343 469 915 978 2120 6230
2020-02-24 22:00 3.51 966 6440 (2018) 180 (2006) 929 182 229 274 343 469 915 978 2120 6230
2020-02-24 21:00 3.50 959 6440 (2018) 180 (2006) 929 182 229 274 343 469 915 978 2120 6230
2020-02-24 20:00 3.46 934 6440 (2018) 180 (2006) 929 182 229 274 343 469 915 978 2120 6230
2020-02-24 19:00 3.45 928 6440 (2018) 180 (2006) 929 182 229 274 343 469 915 978 2120 6230
2020-02-24 18:00 3.43 915 6440 (2018) 180 (2006) 929 182 229 274 343 469 915 978 2120 6230
2020-02-24 17:00 3.41 903 6440 (2018) 180 (2006) 929 182 229 274 343 469 915 978 2120 6230
2020-02-24 16:00 3.39 891 6440 (2018) 180 (2006) 929 182 229 274 343 469 915 978 2120 6230
2020-02-24 15:00 3.39 891 6440 (2018) 180 (2006) 929 182 229 274 343 469 915 978 2120 6230
2020-02-24 14:00 3.35 867 6440 (2018) 180 (2006) 929 182 229 274 343 469 915 978 2120 6230
2020-02-24 13:00 3.33 855 6440 (2018) 180 (2006) 929 182 229 274 343 469 915 978 2120 6230
2020-02-24 12:00 3.33 855 6440 (2018) 180 (2006) 929 182 229 274 343 469 915 978 2120 6230
2020-02-24 11:00 3.32 849 6440 (2018) 180 (2006) 929 182 229 274 343 469 915 978 2120 6230
2020-02-24 10:00 3.31 843 6440 (2018) 180 (2006) 929 182 229 274 343 469 915 978 2120 6230
2020-02-24 09:00 3.30 837 6440 (2018) 180 (2006) 929 182 229 274 343 469 915 978 2120 6230
2020-02-24 08:00 3.28 826 6440 (2018) 180 (2006) 929 182 229 274 343 469 915 978 2120 6230
2020-02-24 07:00 3.26 815 6440 (2018) 180 (2006) 929 182 229 274 343 469 915 978 2120 6230
2020-02-24 06:00 3.25 809 6440 (2018) 180 (2006) 929 182 229 274 343 469 915 978 2120 6230
2020-02-24 05:00 3.24 803 6440 (2018) 180 (2006) 929 182 229 274 343 469 915 978 2120 6230
2020-02-24 04:00 3.25 809 6440 (2018) 180 (2006) 929 182 229 274 343 469 915 978 2120 6230
2020-02-24 03:00 3.24 803 6440 (2018) 180 (2006) 929 182 229 274 343 469 915 978 2120 6230
2020-02-24 02:00 3.19 776 6440 (2018) 180 (2006) 929 182 229 274 343 469 915 978 2120 6230
2020-02-24 01:00 3.19 776 6440 (2018) 180 (2006) 929 182 229 274 343 469 915 978 2120 6230
2020-02-24 00:00 3.18 770 6440 (2018) 180 (2006) 929 182 229 274 343 469 915 978 2120 6230
2020-02-23 23:00 3.18 770 2050 (2018) 182 (2006) 672 184 223 283 374 491 859 999 1820 2040
2020-02-23 22:00 3.15 754 2050 (2018) 182 (2006) 672 184 223 283 374 491 859 999 1820 2040
2020-02-23 21:00 3.17 765 2050 (2018) 182 (2006) 672 184 223 283 374 491 859 999 1820 2040
2020-02-23 20:00 3.20 781 2050 (2018) 182 (2006) 672 184 223 283 374 491 859 999 1820 2040
2020-02-23 19:00 3.19 776 2050 (2018) 182 (2006) 672 184 223 283 374 491 859 999 1820 2040
2020-02-23 18:00 3.19 776 2050 (2018) 182 (2006) 672 184 223 283 374 491 859 999 1820 2040
2020-02-23 17:00 3.18 770 2050 (2018) 182 (2006) 672 184 223 283 374 491 859 999 1820 2040
2020-02-23 16:00 3.17 765 2050 (2018) 182 (2006) 672 184 223 283 374 491 859 999 1820 2040
2020-02-23 15:00 3.17 765 2050 (2018) 182 (2006) 672 184 223 283 374 491 859 999 1820 2040
2020-02-23 14:00 3.21 787 2050 (2018) 182 (2006) 672 184 223 283 374 491 859 999 1820 2040
2020-02-23 13:00 3.19 776 2050 (2018) 182 (2006) 672 184 223 283 374 491 859 999 1820 2040
2020-02-23 12:00 3.20 781 2050 (2018) 182 (2006) 672 184 223 283 374 491 859 999 1820 2040
2020-02-23 11:00 3.21 787 2050 (2018) 182 (2006) 672 184 223 283 374 491 859 999 1820 2040
2020-02-23 10:00 3.19 776 2050 (2018) 182 (2006) 672 184 223 283 374 491 859 999 1820 2040
2020-02-23 09:00 3.23 798 2050 (2018) 182 (2006) 672 184 223 283 374 491 859 999 1820 2040
2020-02-23 08:00 3.21 787 2050 (2018) 182 (2006) 672 184 223 283 374 491 859 999 1820 2040
2020-02-23 07:00 3.18 770 2050 (2018) 182 (2006) 672 184 223 283 374 491 859 999 1820 2040
2020-02-23 06:00 3.18 770 2050 (2018) 182 (2006) 672 184 223 283 374 491 859 999 1820 2040
2020-02-23 05:00 3.20 781 2050 (2018) 182 (2006) 672 184 223 283 374 491 859 999 1820 2040
2020-02-23 04:00 3.21 787 2050 (2018) 182 (2006) 672 184 223 283 374 491 859 999 1820 2040
2020-02-23 03:00 3.20 781 2050 (2018) 182 (2006) 672 184 223 283 374 491 859 999 1820 2040
2020-02-23 02:00 3.20 781 2050 (2018) 182 (2006) 672 184 223 283 374 491 859 999 1820 2040
2020-02-23 01:00 3.23 798 2050 (2018) 182 (2006) 672 184 223 283 374 491 859 999 1820 2040
2020-02-23 00:00 3.19 776 2050 (2018) 182 (2006) 672 184 223 283 374 491 859 999 1820 2040
2020-02-22 23:00 3.18 770 4340 (2018) 184 (2006) 792 186 219 287 387 521 745 839 2120 4230
2020-02-22 22:00 3.20 781 4340 (2018) 184 (2006) 792 186 219 287 387 521 745 839 2120 4230
2020-02-22 21:00 3.23 798 4340 (2018) 184 (2006) 792 186 219 287 387 521 745 839 2120 4230
2020-02-22 20:00 3.25 809 4340 (2018) 184 (2006) 792 186 219 287 387 521 745 839 2120 4230
2020-02-22 19:00 3.26 815 4340 (2018) 184 (2006) 792 186 219 287 387 521 745 839 2120 4230
2020-02-22 18:00 3.24 803 4340 (2018) 184 (2006) 792 186 219 287 387 521 745 839 2120 4230
2020-02-22 17:00 3.26 815 4340 (2018) 184 (2006) 792 186 219 287 387 521 745 839 2120 4230
2020-02-22 16:00 3.26 815 4340 (2018) 184 (2006) 792 186 219 287 387 521 745 839 2120 4230
2020-02-22 15:00 3.24 803 4340 (2018) 184 (2006) 792 186 219 287 387 521 745 839 2120 4230
2020-02-22 14:00 3.24 803 4340 (2018) 184 (2006) 792 186 219 287 387 521 745 839 2120 4230
2020-02-22 13:00 3.24 803 4340 (2018) 184 (2006) 792 186 219 287 387 521 745 839 2120 4230
2020-02-22 12:00 3.24 803 4340 (2018) 184 (2006) 792 186 219 287 387 521 745 839 2120 4230
2020-02-22 11:00 3.23 798 4340 (2018) 184 (2006) 792 186 219 287 387 521 745 839 2120 4230
2020-02-22 10:00 3.27 820 4340 (2018) 184 (2006) 792 186 219 287 387 521 745 839 2120 4230
2020-02-22 09:00 3.30 837 4340 (2018) 184 (2006) 792 186 219 287 387 521 745 839 2120 4230
2020-02-22 08:00 3.27 820 4340 (2018) 184 (2006) 792 186 219 287 387 521 745 839 2120 4230
2020-02-22 07:00 3.29 832 4340 (2018) 184 (2006) 792 186 219 287 387 521 745 839 2120 4230
2020-02-22 06:00 3.28 826 4340 (2018) 184 (2006) 792 186 219 287 387 521 745 839 2120 4230
2020-02-22 05:00 3.29 832 4340 (2018) 184 (2006) 792 186 219 287 387 521 745 839 2120 4230
2020-02-22 04:00 3.29 832 4340 (2018) 184 (2006) 792 186 219 287 387 521 745 839 2120 4230
2020-02-22 03:00 3.31 843 4340 (2018) 184 (2006) 792 186 219 287 387 521 745 839 2120 4230
2020-02-22 02:00 3.31 843 4340 (2018) 184 (2006) 792 186 219 287 387 521 745 839 2120 4230
2020-02-22 01:00 3.30 837 4340 (2018) 184 (2006) 792 186 219 287 387 521 745 839 2120 4230
2020-02-22 00:00 3.30 837 4340 (2018) 184 (2006) 792 186 219 287 387 521 745 839 2120 4230
2020-02-21 23:00 3.32 849 2310 (2019) 186 (2006) 662 188 220 290 398 551 786 970 1330 2260
2020-02-21 22:00 3.30 837 2310 (2019) 186 (2006) 662 188 220 290 398 551 786 970 1330 2260
2020-02-21 21:00 3.29 832 2310 (2019) 186 (2006) 662 188 220 290 398 551 786 970 1330 2260
2020-02-21 20:00 3.34 861 2310 (2019) 186 (2006) 662 188 220 290 398 551 786 970 1330 2260
2020-02-21 19:00 3.34 861 2310 (2019) 186 (2006) 662 188 220 290 398 551 786 970 1330 2260
2020-02-21 18:00 3.34 861 2310 (2019) 186 (2006) 662 188 220 290 398 551 786 970 1330 2260
2020-02-21 17:00 3.34 861 2310 (2019) 186 (2006) 662 188 220 290 398 551 786 970 1330 2260
2020-02-21 16:00 3.35 867 2310 (2019) 186 (2006) 662 188 220 290 398 551 786 970 1330 2260
2020-02-21 15:00 3.37 879 2310 (2019) 186 (2006) 662 188 220 290 398 551 786 970 1330 2260
2020-02-21 14:00 3.37 879 2310 (2019) 186 (2006) 662 188 220 290 398 551 786 970 1330 2260
2020-02-21 13:00 3.37 879 2310 (2019) 186 (2006) 662 188 220 290 398 551 786 970 1330 2260
2020-02-21 12:00 3.37 879 2310 (2019) 186 (2006) 662 188 220 290 398 551 786 970 1330 2260
2020-02-21 11:00 3.38 885 2310 (2019) 186 (2006) 662 188 220 290 398 551 786 970 1330 2260
2020-02-21 10:00 3.39 891 2310 (2019) 186 (2006) 662 188 220 290 398 551 786 970 1330 2260
2020-02-21 09:00 3.39 891 2310 (2019) 186 (2006) 662 188 220 290 398 551 786 970 1330 2260
2020-02-21 08:00 3.35 867 2310 (2019) 186 (2006) 662 188 220 290 398 551 786 970 1330 2260
2020-02-21 07:00 3.41 903 2310 (2019) 186 (2006) 662 188 220 290 398 551 786 970 1330 2260
2020-02-21 06:00 3.39 891 2310 (2019) 186 (2006) 662 188 220 290 398 551 786 970 1330 2260
2020-02-21 05:00 3.36 873 2310 (2019) 186 (2006) 662 188 220 290 398 551 786 970 1330 2260
2020-02-21 04:00 3.41 903 2310 (2019) 186 (2006) 662 188 220 290 398 551 786 970 1330 2260
2020-02-21 03:00 3.41 903 2310 (2019) 186 (2006) 662 188 220 290 398 551 786 970 1330 2260
2020-02-21 02:00 3.39 891 2310 (2019) 186 (2006) 662 188 220 290 398 551 786 970 1330 2260
2020-02-21 01:00 3.44 921 2310 (2019) 186 (2006) 662 188 220 290 398 551 786 970 1330 2260
2020-02-21 00:00 3.43 915 2310 (2019) 186 (2006) 662 188 220 290 398 551 786 970 1330 2260
2020-02-20 23:00 3.44 921 1900 (2008) 187 (2006) 598 188 205 232 289 578 714 755 1130 1860
2020-02-20 22:00 3.42 909 1900 (2008) 187 (2006) 598 188 205 232 289 578 714 755 1130 1860
2020-02-20 21:00 3.46 934 1900 (2008) 187 (2006) 598 188 205 232 289 578 714 755 1130 1860
2020-02-20 20:00 3.45 928 1900 (2008) 187 (2006) 598 188 205 232 289 578 714 755 1130 1860
2020-02-20 19:00 3.46 934 1900 (2008) 187 (2006) 598 188 205 232 289 578 714 755 1130 1860
2020-02-20 18:00 3.49 953 1900 (2008) 187 (2006) 598 188 205 232 289 578 714 755 1130 1860
2020-02-20 17:00 3.49 953 1900 (2008) 187 (2006) 598 188 205 232 289 578 714 755 1130 1860
2020-02-20 16:00 3.49 953 1900 (2008) 187 (2006) 598 188 205 232 289 578 714 755 1130 1860
2020-02-20 15:00 3.51 966 1900 (2008) 187 (2006) 598 188 205 232 289 578 714 755 1130 1860
2020-02-20 14:00 3.49 953 1900 (2008) 187 (2006) 598 188 205 232 289 578 714 755 1130 1860
2020-02-20 13:00 3.53 978 1900 (2008) 187 (2006) 598 188 205 232 289 578 714 755 1130 1860
2020-02-20 12:00 3.49 953 1900 (2008) 187 (2006) 598 188 205 232 289 578 714 755 1130 1860
2020-02-20 11:00 3.53 978 1900 (2008) 187 (2006) 598 188 205 232 289 578 714 755 1130 1860
2020-02-20 10:00 3.52 972 1900 (2008) 187 (2006) 598 188 205 232 289 578 714 755 1130 1860
2020-02-20 09:00 3.52 972 1900 (2008) 187 (2006) 598 188 205 232 289 578 714 755 1130 1860
2020-02-20 08:00 3.54 985 1900 (2008) 187 (2006) 598 188 205 232 289 578 714 755 1130 1860
2020-02-20 07:00 3.54 985 1900 (2008) 187 (2006) 598 188 205 232 289 578 714 755 1130 1860
2020-02-20 06:00 3.53 978 1900 (2008) 187 (2006) 598 188 205 232 289 578 714 755 1130 1860
2020-02-20 05:00 3.56 998 1900 (2008) 187 (2006) 598 188 205 232 289 578 714 755 1130 1860
2020-02-20 04:00 3.56 998 1900 (2008) 187 (2006) 598 188 205 232 289 578 714 755 1130 1860
2020-02-20 03:00 3.57 1000 1900 (2008) 187 (2006) 598 188 205 232 289 578 714 755 1130 1860
2020-02-20 02:00 3.59 1020 1900 (2008) 187 (2006) 598 188 205 232 289 578 714 755 1130 1860
2020-02-20 01:00 3.58 1010 1900 (2008) 187 (2006) 598 188 205 232 289 578 714 755 1130 1860
2020-02-20 00:00 3.58 1010 1900 (2008) 187 (2006) 598 188 205 232 289 578 714 755 1130 1860
2020-02-19 23:00 3.61 1030 3140 (2008) 190 (2006) 671 190 198 219 284 526 777 829 1160 3040
2020-02-19 22:00 3.62 1040 3140 (2008) 190 (2006) 671 190 198 219 284 526 777 829 1160 3040
2020-02-19 21:00 3.62 1040 3140 (2008) 190 (2006) 671 190 198 219 284 526 777 829 1160 3040
2020-02-19 20:00 3.61 1030 3140 (2008) 190 (2006) 671 190 198 219 284 526 777 829 1160 3040
2020-02-19 19:00 3.62 1040 3140 (2008) 190 (2006) 671 190 198 219 284 526 777 829 1160 3040
2020-02-19 18:00 3.63 1040 3140 (2008) 190 (2006) 671 190 198 219 284 526 777 829 1160 3040
2020-02-19 17:00 3.66 1070 3140 (2008) 190 (2006) 671 190 198 219 284 526 777 829 1160 3040
2020-02-19 16:00 3.67 1070 3140 (2008) 190 (2006) 671 190 198 219 284 526 777 829 1160 3040
2020-02-19 15:00 3.68 1080 3140 (2008) 190 (2006) 671 190 198 219 284 526 777 829 1160 3040
2020-02-19 14:00 3.68 1080 3140 (2008) 190 (2006) 671 190 198 219 284 526 777 829 1160 3040
2020-02-19 13:00 3.71 1100 3140 (2008) 190 (2006) 671 190 198 219 284 526 777 829 1160 3040
2020-02-19 12:00 3.71 1100 3140 (2008) 190 (2006) 671 190 198 219 284 526 777 829 1160 3040
2020-02-19 11:00 3.72 1110 3140 (2008) 190 (2006) 671 190 198 219 284 526 777 829 1160 3040
2020-02-19 10:00 3.69 1090 3140 (2008) 190 (2006) 671 190 198 219 284 526 777 829 1160 3040
2020-02-19 09:00 3.73 1110 3140 (2008) 190 (2006) 671 190 198 219 284 526 777 829 1160 3040
2020-02-19 08:00 3.73 1110 3140 (2008) 190 (2006) 671 190 198 219 284 526 777 829 1160 3040
2020-02-19 07:00 3.75 1130 3140 (2008) 190 (2006) 671 190 198 219 284 526 777 829 1160 3040
2020-02-19 06:00 3.77 1140 3140 (2008) 190 (2006) 671 190 198 219 284 526 777 829 1160 3040
2020-02-19 05:00 3.74 1120 3140 (2008) 190 (2006) 671 190 198 219 284 526 777 829 1160 3040
2020-02-19 04:00 3.74 1120 3140 (2008) 190 (2006) 671 190 198 219 284 526 777 829 1160 3040
2020-02-19 03:00 3.77 1140 3140 (2008) 190 (2006) 671 190 198 219 284 526 777 829 1160 3040
2020-02-19 02:00 3.80 1170 3140 (2008) 190 (2006) 671 190 198 219 284 526 777 829 1160 3040
2020-02-19 01:00 3.80 1170 3140 (2008) 190 (2006) 671 190 198 219 284 526 777 829 1160 3040
2020-02-19 00:00 3.81 1170 3140 (2008) 190 (2006) 671 190 198 219 284 526 777 829 1160 3040
2020-02-18 23:00 3.81 1170 10300 (2008) 183 (2018) 1080 183 193 211 224 569 889 935 1470 9860
2020-02-18 22:00 3.82 1180 10300 (2008) 183 (2018) 1080 183 193 211 224 569 889 935 1470 9860
2020-02-18 21:00 3.82 1180 10300 (2008) 183 (2018) 1080 183 193 211 224 569 889 935 1470 9860
2020-02-18 20:00 3.84 1200 10300 (2008) 183 (2018) 1080 183 193 211 224 569 889 935 1470 9860
2020-02-18 19:00 3.84 1200 10300 (2008) 183 (2018) 1080 183 193 211 224 569 889 935 1470 9860
2020-02-18 18:00 3.85 1200 10300 (2008) 183 (2018) 1080 183 193 211 224 569 889 935 1470 9860
2020-02-18 17:00 3.85 1200 10300 (2008) 183 (2018) 1080 183 193 211 224 569 889 935 1470 9860
2020-02-18 16:00 3.86 1210 10300 (2008) 183 (2018) 1080 183 193 211 224 569 889 935 1470 9860
2020-02-18 15:00 3.88 1230 10300 (2008) 183 (2018) 1080 183 193 211 224 569 889 935 1470 9860
2020-02-18 14:00 3.88 1230 10300 (2008) 183 (2018) 1080 183 193 211 224 569 889 935 1470 9860
2020-02-18 13:00 3.89 1230 10300 (2008) 183 (2018) 1080 183 193 211 224 569 889 935 1470 9860
2020-02-18 12:00 3.93 1260 10300 (2008) 183 (2018) 1080 183 193 211 224 569 889 935 1470 9860
2020-02-18 11:00 3.91 1250 10300 (2008) 183 (2018) 1080 183 193 211 224 569 889 935 1470 9860
2020-02-18 10:00 3.90 1240 10300 (2008) 183 (2018) 1080 183 193 211 224 569 889 935 1470 9860
2020-02-18 09:00 3.92 1260 10300 (2008) 183 (2018) 1080 183 193 211 224 569 889 935 1470 9860
2020-02-18 08:00 3.91 1250 10300 (2008) 183 (2018) 1080 183 193 211 224 569 889 935 1470 9860
2020-02-18 07:00 3.96 1290 10300 (2008) 183 (2018) 1080 183 193 211 224 569 889 935 1470 9860
2020-02-18 06:00 3.94 1270 10300 (2008) 183 (2018) 1080 183 193 211 224 569 889 935 1470 9860
2020-02-18 05:00 3.95 1280 10300 (2008) 183 (2018) 1080 183 193 211 224 569 889 935 1470 9860
2020-02-18 04:00 3.95 1280 10300 (2008) 183 (2018) 1080 183 193 211 224 569 889 935 1470 9860
2020-02-18 03:00 3.97 1300 10300 (2008) 183 (2018) 1080 183 193 211 224 569 889 935 1470 9860
2020-02-18 02:00 3.97 1300 10300 (2008) 183 (2018) 1080 183 193 211 224 569 889 935 1470 9860
2020-02-18 01:00 3.99 1310 10300 (2008) 183 (2018) 1080 183 193 211 224 569 889 935 1470 9860
2020-02-18 00:00 3.99 1310 10300 (2008) 183 (2018) 1080 183 193 211 224 569 889 935 1470 9860

A total of 191 rows are displayed for years 2000 through 2019.